Página principal
METAR-TAF:

METAR-TAF

Aeroportos :

Aeroporto Internacional Nouakchott-Oumtounsy

Nouakchott, Mauritânia

latitude: 18-18-36N, longitude: 015-58-11W, altura: 3 m

Observação actual do tempo

O boletim foi feito há 33 minutos, às 15:30 UTC
Vento 18 kt de noroeste
Temperatura 31°C
Humidade 46%
Pressão 1011 hPa
Visibilidade: 4500 m
Areia levantada pelo vento

METAR: GQNO 201530Z 32018KT 4500 BLSA NSC 31/18 Q1011 NOSIG

Hora: 16:03 (16:03 UTC)

Previsão

O boletim foi feito há 5 horas e 3 minutos, às 11:00 UTC
Previsão válida de 20 às 12 UTC a 21 às 18 UTC
Vento 15 kt de es-nordeste
Visibilidade: 3000 m
Areia levantada pelo vento
Tornando-se
de 20 às 14 UTC a 20 às 18 UTC
Vento 14 kt de norte
Tornando-se
de 20 às 16 UTC a 20 às 19 UTC
Visibilidade: 6000 m

TAF: GQNO 201100Z 2012/2118 06015KT 3000 BLSA NSC BECMG 2014/2018 35014KT BECMG 2016/2019 6000 NSW

Observações e previsões do tempo de mais de 4000 aeroportos (mensagens METAR e TAF).

As estações disponíveis são os pontos amarelos e vermelhos sobre o mapa.

Mova o rato sobre o mapa para ver o nome da estação.

Depois clique no ponto para visualizar as observações e previsões meteorológicas.

Para alterar o mapa : clique nos botões verdes com uma cruz preta para aumentar o zoom; no botão verde com uma pitada de zoom; ou nas setas verdes para mapas adjacentes.


METAR-TAF: